createdAt,value
2023-05-14T00:00:23.956Z,1020.27
2023-05-14T00:00:54.547Z,1020.27
2023-05-14T00:01:25.723Z,1020.26
2023-05-14T00:01:56.167Z,1020.26
2023-05-14T00:02:27.174Z,1020.26
2023-05-14T00:02:57.864Z,1020.26
2023-05-14T00:03:28.488Z,1020.26
2023-05-14T00:03:59.063Z,1020.26
2023-05-14T00:04:28.810Z,1020.26
2023-05-14T00:05:00.261Z,1020.25
2023-05-14T00:05:30.759Z,1020.26
2023-05-14T00:06:01.674Z,1020.26
2023-05-14T00:06:32.594Z,1020.25
2023-05-14T00:07:02.119Z,1020.26
2023-05-14T00:07:34.044Z,1020.25
2023-05-14T00:08:05.008Z,1020.25
2023-05-14T00:08:35.994Z,1020.25
2023-05-14T00:09:06.921Z,1020.25
2023-05-14T00:09:37.836Z,1020.25
2023-05-14T00:10:08.764Z,1020.24
2023-05-14T00:10:39.705Z,1020.24
2023-05-14T00:11:10.626Z,1020.24
2023-05-14T00:11:40.508Z,1020.24
2023-05-14T00:12:12.479Z,1020.23
2023-05-14T00:12:43.408Z,1020.23
2023-05-14T00:13:14.379Z,1020.23
2023-05-14T00:13:45.282Z,1020.23
2023-05-14T00:14:16.214Z,1020.23
2023-05-14T00:14:47.136Z,1020.23
2023-05-14T00:15:18.060Z,1020.22
2023-05-14T00:15:49.082Z,1020.22
2023-05-14T00:16:20.041Z,1020.22
2023-05-14T00:16:50.508Z,1020.22
2023-05-14T00:17:21.467Z,1020.22
2023-05-14T00:17:51.071Z,1020.22
2023-05-14T00:18:21.624Z,1020.21
2023-05-14T00:18:53.612Z,1020.23
2023-05-14T00:19:24.079Z,1020.22
2023-05-14T00:19:53.722Z,1020.20
2023-05-14T00:20:25.865Z,1020.21
2023-05-14T00:20:56.354Z,1020.20
2023-05-14T00:21:27.315Z,1020.20
2023-05-14T00:21:58.287Z,1020.18
2023-05-14T00:22:28.776Z,1020.18
2023-05-14T00:22:59.707Z,1020.16
2023-05-14T00:23:30.632Z,1020.16
2023-05-14T00:24:01.554Z,1020.14
2023-05-14T00:24:32.501Z,1020.13
2023-05-14T00:25:02.984Z,1020.12
2023-05-14T00:25:33.930Z,1020.09
2023-05-14T00:26:04.876Z,1020.09
2023-05-14T00:26:35.807Z,1020.08
2023-05-14T00:27:05.314Z,1020.07
2023-05-14T00:27:37.222Z,1020.07
2023-05-14T00:28:08.146Z,1020.05
2023-05-14T00:28:39.081Z,1020.05
2023-05-14T00:29:10.007Z,1020.05
2023-05-14T00:29:39.529Z,1020.05
2023-05-14T00:30:11.455Z,1020.05
2023-05-14T00:30:41.028Z,1020.04
2023-05-14T00:31:12.955Z,1020.04
2023-05-14T00:31:43.916Z,1020.05
2023-05-14T00:32:14.387Z,1020.05
2023-05-14T00:32:45.340Z,1020.05
2023-05-14T00:33:16.274Z,1020.04
2023-05-14T00:33:47.209Z,1020.05
2023-05-14T00:34:18.213Z,1020.04
2023-05-14T00:34:49.135Z,1020.04
2023-05-14T00:35:20.058Z,1020.04
2023-05-14T00:35:50.992Z,1020.04
2023-05-14T00:36:21.915Z,1020.03
2023-05-14T00:36:52.845Z,1020.03
2023-05-14T00:37:23.773Z,1020.03
2023-05-14T00:37:54.739Z,1020.03
2023-05-14T00:38:25.666Z,1020.02
2023-05-14T00:38:56.665Z,1020.02
2023-05-14T00:39:27.594Z,1020.01
2023-05-14T00:39:58.505Z,1020.02
2023-05-14T00:40:29.428Z,1020.01
2023-05-14T00:41:00.355Z,1020.00
2023-05-14T00:41:31.308Z,1020.00
2023-05-14T00:42:01.788Z,1019.98
2023-05-14T00:42:32.716Z,1019.99
2023-05-14T00:43:03.566Z,1019.98
2023-05-14T00:43:34.466Z,1019.98
2023-05-14T00:44:05.391Z,1019.97
2023-05-14T00:44:36.382Z,1019.97
2023-05-14T00:45:07.295Z,1019.97
2023-05-14T00:45:36.793Z,1019.98
2023-05-14T00:46:11.674Z,1019.97
2023-05-14T00:46:39.631Z,1019.98
2023-05-14T00:47:10.545Z,1019.98
2023-05-14T00:48:12.374Z,1019.97
2023-05-14T00:48:43.330Z,1019.98
2023-05-14T00:49:13.832Z,1019.97
2023-05-14T00:49:44.796Z,1019.98
2023-05-14T00:50:15.689Z,1019.97
2023-05-14T00:50:46.618Z,1019.97
2023-05-14T00:51:17.612Z,1019.98
2023-05-14T00:51:48.614Z,1019.97
2023-05-14T00:52:19.259Z,1019.98
2023-05-14T00:52:50.178Z,1019.96
2023-05-14T00:53:21.119Z,1019.96
2023-05-14T00:53:51.605Z,1019.96
2023-05-14T00:54:22.523Z,1019.96
2023-05-14T00:54:53.752Z,1019.96
2023-05-14T00:55:24.202Z,1019.94
2023-05-14T00:55:55.124Z,1019.95
2023-05-14T00:56:26.075Z,1019.96
2023-05-14T00:56:56.999Z,1019.95
2023-05-14T00:57:27.922Z,1019.95
2023-05-14T00:57:58.862Z,1019.93
2023-05-14T00:58:29.842Z,1019.95
2023-05-14T00:59:00.825Z,1019.96
2023-05-14T00:59:31.721Z,1019.94
2023-05-14T01:00:02.666Z,1019.95
2023-05-14T01:00:33.664Z,1019.96
2023-05-14T01:01:04.144Z,1019.95
2023-05-14T01:01:34.802Z,1019.96
2023-05-14T01:02:05.337Z,1019.95
2023-05-14T01:02:36.357Z,1019.96
2023-05-14T01:03:09.230Z,1019.98
2023-05-14T01:03:36.576Z,1019.97
2023-05-14T01:04:08.147Z,1019.97
2023-05-14T01:04:39.064Z,1019.98
2023-05-14T01:05:10.003Z,1019.99
2023-05-14T01:05:40.925Z,1019.98
2023-05-14T01:06:11.839Z,1019.98
2023-05-14T01:06:42.759Z,1019.98
2023-05-14T01:07:13.722Z,1019.97
2023-05-14T01:07:44.644Z,1019.97
2023-05-14T01:08:15.551Z,1019.97
2023-05-14T01:08:46.472Z,1019.97
2023-05-14T01:09:17.384Z,1019.96
2023-05-14T01:09:48.396Z,1019.97
2023-05-14T01:10:19.312Z,1019.96
2023-05-14T01:10:50.186Z,1019.94
2023-05-14T01:11:21.114Z,1019.94
2023-05-14T01:11:52.030Z,1019.93
2023-05-14T01:12:22.972Z,1019.93
2023-05-14T01:12:53.895Z,1019.93
2023-05-14T01:13:24.815Z,1019.93
2023-05-14T01:13:55.744Z,1019.92
2023-05-14T01:14:26.673Z,1019.92
2023-05-14T01:14:57.608Z,1019.92
2023-05-14T01:15:28.555Z,1019.92
2023-05-14T01:15:59.478Z,1019.92
2023-05-14T01:16:30.488Z,1019.92
2023-05-14T01:17:00.971Z,1019.93
2023-05-14T01:17:31.922Z,1019.92
2023-05-14T01:18:33.344Z,1019.93
2023-05-14T01:19:04.291Z,1019.93
2023-05-14T01:19:35.245Z,1019.93
2023-05-14T01:20:06.151Z,1019.93
2023-05-14T01:20:37.092Z,1019.94
2023-05-14T01:21:08.006Z,1019.95
2023-05-14T01:21:38.929Z,1019.96
2023-05-14T01:22:09.845Z,1019.95
2023-05-14T01:22:40.794Z,1019.95
2023-05-14T01:23:11.713Z,1019.96
2023-05-14T01:23:42.642Z,1019.97
2023-05-14T01:24:13.563Z,1019.96
2023-05-14T01:24:44.489Z,1019.97
2023-05-14T01:25:15.410Z,1019.97
2023-05-14T01:25:46.363Z,1019.96
2023-05-14T01:26:17.335Z,1019.95
2023-05-14T01:26:48.260Z,1019.97
2023-05-14T01:27:19.195Z,1019.96
2023-05-14T01:27:50.125Z,1019.96
2023-05-14T01:28:21.071Z,1019.96
2023-05-14T01:28:52.007Z,1019.96
2023-05-14T01:29:22.955Z,1019.96
2023-05-14T01:29:53.872Z,1019.96
2023-05-14T01:30:25.167Z,1019.96
2023-05-14T01:30:55.768Z,1019.96
2023-05-14T01:31:26.689Z,1019.95
2023-05-14T01:31:57.685Z,1019.94
2023-05-14T01:32:28.158Z,1019.94
2023-05-14T01:32:59.132Z,1019.94
2023-05-14T01:33:29.607Z,1019.95
2023-05-14T01:34:00.560Z,1019.93
2023-05-14T01:34:31.564Z,1019.94
2023-05-14T01:35:02.470Z,1019.93
2023-05-14T01:36:04.302Z,1019.94
2023-05-14T01:36:35.160Z,1019.95
2023-05-14T01:37:06.070Z,1019.95
2023-05-14T01:37:36.990Z,1019.96
2023-05-14T01:38:07.917Z,1019.93
2023-05-14T01:38:38.825Z,1019.95
2023-05-14T01:39:09.362Z,1019.95
2023-05-14T01:39:40.284Z,1019.96
2023-05-14T01:40:11.222Z,1019.96
2023-05-14T01:40:42.135Z,1019.96
2023-05-14T01:41:13.067Z,1019.95
2023-05-14T01:41:44.002Z,1019.95
2023-05-14T01:42:14.921Z,1019.95
2023-05-14T01:42:45.869Z,1019.95
2023-05-14T01:43:16.769Z,1019.96
2023-05-14T01:43:47.588Z,1019.94
2023-05-14T01:44:18.502Z,1019.96
2023-05-14T01:44:49.435Z,1019.96
2023-05-14T01:45:20.379Z,1019.96
2023-05-14T01:45:51.372Z,1019.95
2023-05-14T01:46:21.872Z,1019.95
2023-05-14T01:46:51.388Z,1019.94
2023-05-14T01:47:23.335Z,1019.94
2023-05-14T01:47:54.363Z,1019.94
2023-05-14T01:48:55.738Z,1019.94
2023-05-14T01:49:26.654Z,1019.95
2023-05-14T01:49:57.620Z,1019.94
2023-05-14T01:50:28.451Z,1019.93
2023-05-14T01:50:59.380Z,1019.93
2023-05-14T01:51:30.377Z,1019.92
2023-05-14T01:52:01.279Z,1019.91
2023-05-14T01:52:32.207Z,1019.91
2023-05-14T01:53:03.141Z,1019.91
2023-05-14T01:53:34.080Z,1019.90
2023-05-14T01:54:05.024Z,1019.90
2023-05-14T01:54:35.947Z,1019.90
2023-05-14T01:55:06.890Z,1019.89
2023-05-14T01:55:37.815Z,1019.87
2023-05-14T01:56:08.781Z,1019.88
2023-05-14T01:56:39.252Z,1019.88
2023-05-14T01:57:10.170Z,1019.87
2023-05-14T01:57:41.082Z,1019.88
2023-05-14T01:58:10.974Z,1019.88
2023-05-14T01:58:42.780Z,1019.86
2023-05-14T01:59:13.705Z,1019.86
2023-05-14T01:59:44.624Z,1019.85
2023-05-14T02:00:15.559Z,1019.85
2023-05-14T02:00:46.482Z,1019.85
2023-05-14T02:01:17.470Z,1019.84
2023-05-14T02:01:47.949Z,1019.83
2023-05-14T02:02:18.404Z,1019.84
2023-05-14T02:02:49.374Z,1019.82
2023-05-14T02:03:20.283Z,1019.83
2023-05-14T02:03:51.227Z,1019.82
2023-05-14T02:04:22.189Z,1019.84
2023-05-14T02:04:53.090Z,1019.84
2023-05-14T02:05:24.022Z,1019.84
2023-05-14T02:06:25.810Z,1019.84
2023-05-14T02:06:56.777Z,1019.84
2023-05-14T02:07:27.680Z,1019.83
2023-05-14T02:07:58.622Z,1019.84
2023-05-14T02:08:29.587Z,1019.83
2023-05-14T02:09:00.536Z,1019.83
2023-05-14T02:09:31.315Z,1019.83
2023-05-14T02:10:02.167Z,1019.83
2023-05-14T02:10:33.058Z,1019.82
2023-05-14T02:11:02.654Z,1019.83
2023-05-14T02:11:34.574Z,1019.82
2023-05-14T02:12:05.511Z,1019.83
2023-05-14T02:12:36.492Z,1019.82
2023-05-14T02:13:07.423Z,1019.82
2023-05-14T02:13:38.349Z,1019.82
2023-05-14T02:14:09.288Z,1019.82
2023-05-14T02:14:38.824Z,1019.82
2023-05-14T02:15:10.784Z,1019.82
2023-05-14T02:15:41.765Z,1019.82
2023-05-14T02:16:12.778Z,1019.82
2023-05-14T02:16:43.262Z,1019.81
2023-05-14T02:17:14.166Z,1019.80
2023-05-14T02:17:45.137Z,1019.81
2023-05-14T02:18:16.085Z,1019.80
2023-05-14T02:18:46.634Z,1019.80
2023-05-14T02:19:17.882Z,1019.80
2023-05-14T02:19:48.513Z,1019.80
2023-05-14T02:20:19.453Z,1019.80
2023-05-14T02:20:49.331Z,1019.79
2023-05-14T02:21:21.254Z,1019.78
2023-05-14T02:21:52.169Z,1019.78
2023-05-14T02:22:23.124Z,1019.78
2023-05-14T02:22:54.072Z,1019.77
2023-05-14T02:23:34.119Z,1019.76
2023-05-14T02:23:55.797Z,1019.75
2023-05-14T02:24:25.764Z,1019.74
2023-05-14T02:24:57.687Z,1019.74
2023-05-14T02:25:28.607Z,1019.74
2023-05-14T02:25:59.545Z,1019.73
2023-05-14T02:26:30.460Z,1019.72
2023-05-14T02:27:01.223Z,1019.71
2023-05-14T02:27:31.666Z,1019.69
2023-05-14T02:28:01.192Z,1019.68
2023-05-14T02:28:33.105Z,1019.67
2023-05-14T02:29:03.912Z,1019.66
2023-05-14T02:29:34.860Z,1019.66
2023-05-14T02:30:05.779Z,1019.66
2023-05-14T02:30:36.699Z,1019.65
2023-05-14T02:31:07.734Z,1019.64
2023-05-14T02:32:09.124Z,1019.63
2023-05-14T02:32:40.181Z,1019.63
2023-05-14T02:33:10.841Z,1019.61
2023-05-14T02:33:41.318Z,1019.61
2023-05-14T02:34:12.293Z,1019.61
2023-05-14T02:34:43.225Z,1019.61
2023-05-14T02:35:14.155Z,1019.61
2023-05-14T02:35:45.083Z,1019.61
2023-05-14T02:36:16.000Z,1019.61
2023-05-14T02:36:47.001Z,1019.62
2023-05-14T02:37:17.919Z,1019.62
2023-05-14T02:37:48.874Z,1019.62
2023-05-14T02:38:19.807Z,1019.62
2023-05-14T02:38:50.726Z,1019.62
2023-05-14T02:39:22.262Z,1019.62
2023-05-14T02:39:52.166Z,1019.61
2023-05-14T02:40:23.267Z,1019.61
2023-05-14T02:40:53.893Z,1019.60
2023-05-14T02:41:24.830Z,1019.60
2023-05-14T02:41:55.744Z,1019.60
2023-05-14T02:42:26.707Z,1019.59
2023-05-14T02:42:56.354Z,1019.59
2023-05-14T02:43:27.850Z,1019.59
2023-05-14T02:43:57.722Z,1019.59
2023-05-14T02:44:29.645Z,1019.59
2023-05-14T02:45:00.577Z,1019.58
2023-05-14T02:45:31.485Z,1019.58
2023-05-14T02:46:02.428Z,1019.57
2023-05-14T02:46:33.469Z,1019.56
2023-05-14T02:47:03.993Z,1019.56
2023-05-14T02:47:36.194Z,1019.55
2023-05-14T02:48:05.098Z,1019.54
2023-05-14T02:48:36.047Z,1019.53
2023-05-14T02:49:06.944Z,1019.53
2023-05-14T02:49:37.412Z,1019.53
2023-05-14T02:50:08.342Z,1019.52
2023-05-14T02:50:39.293Z,1019.52
2023-05-14T02:51:09.813Z,1019.52
2023-05-14T02:51:40.742Z,1019.52
2023-05-14T02:52:11.677Z,1019.52
2023-05-14T02:52:42.603Z,1019.53
2023-05-14T02:53:13.559Z,1019.53
2023-05-14T02:53:44.452Z,1019.53
2023-05-14T02:54:15.364Z,1019.53
2023-05-14T02:54:46.297Z,1019.52
2023-05-14T02:55:17.220Z,1019.52
2023-05-14T02:55:48.192Z,1019.52
2023-05-14T02:56:19.130Z,1019.51
2023-05-14T02:56:50.053Z,1019.52
2023-05-14T02:57:51.906Z,1019.50
2023-05-14T02:58:25.052Z,1019.50
2023-05-14T02:58:53.648Z,1019.50
2023-05-14T02:59:24.408Z,1019.50
2023-05-14T02:59:55.327Z,1019.49
2023-05-14T03:00:26.185Z,1019.49
2023-05-14T03:00:57.000Z,1019.49
2023-05-14T03:01:27.994Z,1019.48
2023-05-14T03:01:57.468Z,1019.48
2023-05-14T03:02:29.329Z,1019.48
2023-05-14T03:03:00.229Z,1019.48
2023-05-14T03:03:31.056Z,1019.47
2023-05-14T03:04:01.960Z,1019.48
2023-05-14T03:04:32.942Z,1019.48
2023-05-14T03:05:03.869Z,1019.48
2023-05-14T03:05:34.796Z,1019.48
2023-05-14T03:06:05.718Z,1019.48
2023-05-14T03:06:36.655Z,1019.48
2023-05-14T03:07:07.584Z,1019.48
2023-05-14T03:07:38.526Z,1019.47
2023-05-14T03:08:09.438Z,1019.47
2023-05-14T03:08:40.381Z,1019.45
2023-05-14T03:09:11.285Z,1019.45
2023-05-14T03:09:42.181Z,1019.44
2023-05-14T03:10:13.147Z,1019.44
2023-05-14T03:10:44.052Z,1019.44
2023-05-14T03:11:14.959Z,1019.44
2023-05-14T03:11:45.863Z,1019.44
2023-05-14T03:12:16.790Z,1019.43
2023-05-14T03:12:47.728Z,1019.43
2023-05-14T03:13:18.630Z,1019.43
2023-05-14T03:14:20.505Z,1019.42
2023-05-14T03:14:51.434Z,1019.41
2023-05-14T03:15:22.352Z,1019.40
2023-05-14T03:15:54.283Z,1019.40
2023-05-14T03:16:23.216Z,1019.38
2023-05-14T03:16:55.113Z,1019.38
2023-05-14T03:17:26.094Z,1019.37
2023-05-14T03:17:58.135Z,1019.36
2023-05-14T03:18:27.607Z,1019.36
2023-05-14T03:18:58.593Z,1019.36
2023-05-14T03:19:29.020Z,1019.34
2023-05-14T03:19:59.833Z,1019.34
2023-05-14T03:20:30.704Z,1019.33
2023-05-14T03:21:01.580Z,1019.33
2023-05-14T03:21:32.454Z,1019.33
2023-05-14T03:22:03.322Z,1019.33
2023-05-14T03:22:34.224Z,1019.31
2023-05-14T03:23:05.164Z,1019.32
2023-05-14T03:23:36.104Z,1019.31
2023-05-14T03:24:07.058Z,1019.30
2023-05-14T03:24:37.973Z,1019.30
2023-05-14T03:25:08.888Z,1019.30
2023-05-14T03:25:39.790Z,1019.30
2023-05-14T03:26:10.661Z,1019.31
2023-05-14T03:26:41.598Z,1019.30
2023-05-14T03:27:12.479Z,1019.30
2023-05-14T03:27:43.398Z,1019.30
2023-05-14T03:28:13.377Z,1019.31
2023-05-14T03:28:45.300Z,1019.32
2023-05-14T03:29:16.179Z,1019.33
2023-05-14T03:29:47.180Z,1019.33
2023-05-14T03:30:16.627Z,1019.32
2023-05-14T03:30:48.549Z,1019.33
2023-05-14T03:31:50.319Z,1019.33
2023-05-14T03:32:21.195Z,1019.33
2023-05-14T03:32:52.127Z,1019.34
2023-05-14T03:33:23.003Z,1019.34
2023-05-14T03:33:53.881Z,1019.35
2023-05-14T03:34:24.629Z,1019.33
2023-05-14T03:34:55.511Z,1019.34
2023-05-14T03:35:26.406Z,1019.34
2023-05-14T03:35:57.288Z,1019.35
2023-05-14T03:36:28.190Z,1019.35
2023-05-14T03:36:59.072Z,1019.36
2023-05-14T03:37:28.591Z,1019.37
2023-05-14T03:38:00.499Z,1019.36
2023-05-14T03:38:31.370Z,1019.35
2023-05-14T03:39:02.244Z,1019.36
2023-05-14T03:39:33.135Z,1019.36
2023-05-14T03:40:03.993Z,1019.36
2023-05-14T03:40:34.897Z,1019.36
2023-05-14T03:41:05.802Z,1019.37
2023-05-14T03:41:36.660Z,1019.37
2023-05-14T03:42:07.554Z,1019.37
2023-05-14T03:42:38.411Z,1019.37
2023-05-14T03:43:08.360Z,1019.37
2023-05-14T03:43:40.253Z,1019.37
2023-05-14T03:44:41.986Z,1019.37
2023-05-14T03:45:12.892Z,1019.37
2023-05-14T03:45:43.733Z,1019.37
2023-05-14T03:46:14.632Z,1019.37
2023-05-14T03:46:45.566Z,1019.38
2023-05-14T03:47:16.436Z,1019.38
2023-05-14T03:47:47.350Z,1019.38
2023-05-14T03:48:18.325Z,1019.37
2023-05-14T03:48:49.273Z,1019.37
2023-05-14T03:49:20.181Z,1019.36
2023-05-14T03:49:51.061Z,1019.36
2023-05-14T03:50:22.160Z,1019.36
2023-05-14T03:50:52.617Z,1019.35
2023-05-14T03:51:23.507Z,1019.36
2023-05-14T03:51:54.377Z,1019.34
2023-05-14T03:52:25.258Z,1019.34
2023-05-14T03:52:56.153Z,1019.35
2023-05-14T03:53:27.014Z,1019.34
2023-05-14T03:53:57.944Z,1019.34
2023-05-14T03:54:28.811Z,1019.33
2023-05-14T03:54:59.790Z,1019.34
2023-05-14T03:55:30.636Z,1019.33
2023-05-14T03:56:01.513Z,1019.33
2023-05-14T03:56:32.401Z,1019.33
2023-05-14T03:57:02.283Z,1019.32
2023-05-14T03:57:34.170Z,1019.33
2023-05-14T03:58:05.065Z,1019.33
2023-05-14T03:58:35.926Z,1019.32
2023-05-14T03:59:06.791Z,1019.34
2023-05-14T03:59:37.715Z,1019.34
2023-05-14T04:00:08.634Z,1019.34
2023-05-14T04:00:39.530Z,1019.34
2023-05-14T04:01:10.423Z,1019.33
2023-05-14T04:02:12.373Z,1019.34
2023-05-14T04:02:42.945Z,1019.33
2023-05-14T04:03:13.396Z,1019.32
2023-05-14T04:03:43.127Z,1019.32
2023-05-14T04:04:14.721Z,1019.32
2023-05-14T04:04:45.643Z,1019.33
2023-05-14T04:05:16.540Z,1019.33
2023-05-14T04:05:46.356Z,1019.33
2023-05-14T04:06:18.199Z,1019.32
2023-05-14T04:06:49.086Z,1019.33
2023-05-14T04:07:20.009Z,1019.33
2023-05-14T04:07:50.886Z,1019.33
2023-05-14T04:08:21.778Z,1019.32
2023-05-14T04:08:52.653Z,1019.32
2023-05-14T04:09:23.506Z,1019.32
2023-05-14T04:09:54.363Z,1019.32
2023-05-14T04:10:25.415Z,1019.31
2023-05-14T04:10:55.900Z,1019.31
2023-05-14T04:11:26.781Z,1019.31
2023-05-14T04:11:57.685Z,1019.32
2023-05-14T04:12:28.613Z,1019.31
2023-05-14T04:12:59.532Z,1019.31
2023-05-14T04:13:30.375Z,1019.31
2023-05-14T04:14:01.235Z,1019.30
2023-05-14T04:15:01.633Z,1019.30
2023-05-14T04:15:33.555Z,1019.30
2023-05-14T04:16:04.556Z,1019.30
2023-05-14T04:16:35.521Z,1019.30
2023-05-14T04:17:06.394Z,1019.30
2023-05-14T04:17:37.359Z,1019.30
2023-05-14T04:18:08.311Z,1019.30
2023-05-14T04:18:39.285Z,1019.29
2023-05-14T04:19:10.230Z,1019.29
2023-05-14T04:19:39.956Z,1019.29
2023-05-14T04:20:11.841Z,1019.29
2023-05-14T04:20:42.732Z,1019.29
2023-05-14T04:21:13.603Z,1019.30
2023-05-14T04:21:44.454Z,1019.29
2023-05-14T04:22:15.327Z,1019.28
2023-05-14T04:22:46.196Z,1019.29
2023-05-14T04:23:17.101Z,1019.28
2023-05-14T04:23:48.049Z,1019.28
2023-05-14T04:24:18.938Z,1019.27
2023-05-14T04:24:49.833Z,1019.26
2023-05-14T04:25:20.724Z,1019.26
2023-05-14T04:25:51.695Z,1019.27
2023-05-14T04:26:22.542Z,1019.25
2023-05-14T04:26:53.433Z,1019.25
2023-05-14T04:27:24.290Z,1019.24
2023-05-14T04:27:55.158Z,1019.24
2023-05-14T04:28:26.066Z,1019.24
2023-05-14T04:28:56.988Z,1019.25
2023-05-14T04:29:27.882Z,1019.24
2023-05-14T04:29:57.840Z,1019.24
2023-05-14T04:30:29.730Z,1019.25
2023-05-14T04:31:00.589Z,1019.25
2023-05-14T04:31:30.640Z,1019.25
2023-05-14T04:32:33.472Z,1019.24
2023-05-14T04:33:03.961Z,1019.24
2023-05-14T04:33:34.829Z,1019.24
2023-05-14T04:34:05.683Z,1019.23
2023-05-14T04:34:36.564Z,1019.24
2023-05-14T04:35:07.480Z,1019.24
2023-05-14T04:35:39.437Z,1019.25
2023-05-14T04:36:09.202Z,1019.25
2023-05-14T04:36:40.100Z,1019.25
2023-05-14T04:37:11.011Z,1019.24
2023-05-14T04:37:41.860Z,1019.25
2023-05-14T04:38:12.762Z,1019.25
2023-05-14T04:38:43.658Z,1019.25
2023-05-14T04:39:14.523Z,1019.25
2023-05-14T04:39:45.398Z,1019.24
2023-05-14T04:40:16.273Z,1019.24
2023-05-14T04:40:47.157Z,1019.24
2023-05-14T04:41:18.110Z,1019.24
2023-05-14T04:41:48.988Z,1019.25
2023-05-14T04:42:19.854Z,1019.24
2023-05-14T04:42:49.416Z,1019.25
2023-05-14T04:43:21.257Z,1019.24
2023-05-14T04:43:52.008Z,1019.24
2023-05-14T04:44:22.912Z,1019.25
2023-05-14T04:45:24.621Z,1019.26
2023-05-14T04:45:55.518Z,1019.26
2023-05-14T04:46:26.400Z,1019.26
2023-05-14T04:46:57.273Z,1019.26
2023-05-14T04:47:28.219Z,1019.27
2023-05-14T04:47:59.122Z,1019.27
2023-05-14T04:48:28.619Z,1019.28
2023-05-14T04:49:00.505Z,1019.28
2023-05-14T04:49:31.440Z,1019.28
2023-05-14T04:50:03.328Z,1019.28
2023-05-14T04:50:33.144Z,1019.28
2023-05-14T04:51:06.859Z,1019.28
2023-05-14T04:51:34.773Z,1019.28
2023-05-14T04:52:05.636Z,1019.28
2023-05-14T04:52:36.525Z,1019.28
2023-05-14T04:53:07.466Z,1019.28
2023-05-14T04:53:36.934Z,1019.28
2023-05-14T04:54:08.860Z,1019.28
2023-05-14T04:54:38.411Z,1019.28
2023-05-14T04:55:10.281Z,1019.29
2023-05-14T04:55:41.140Z,1019.29
2023-05-14T04:56:11.998Z,1019.29
2023-05-14T04:56:42.910Z,1019.29
2023-05-14T04:57:13.742Z,1019.30
2023-05-14T04:58:15.518Z,1019.30
2023-05-14T04:58:46.394Z,1019.30
2023-05-14T04:59:17.278Z,1019.31
2023-05-14T04:59:48.134Z,1019.31
2023-05-14T05:00:18.987Z,1019.32
2023-05-14T05:00:48.989Z,1019.33
2023-05-14T05:01:20.917Z,1019.33
2023-05-14T05:01:51.791Z,1019.34
2023-05-14T05:02:22.664Z,1019.34
2023-05-14T05:02:53.547Z,1019.35
2023-05-14T05:03:24.493Z,1019.35
2023-05-14T05:03:55.036Z,1019.35
2023-05-14T05:04:25.956Z,1019.35
2023-05-14T05:04:56.880Z,1019.36
2023-05-14T05:05:27.804Z,1019.36
2023-05-14T05:05:58.756Z,1019.37
2023-05-14T05:06:29.624Z,1019.37
2023-05-14T05:07:00.559Z,1019.37
2023-05-14T05:07:31.439Z,1019.37
2023-05-14T05:08:02.295Z,1019.37
2023-05-14T05:08:33.160Z,1019.37
2023-05-14T05:09:04.184Z,1019.37
2023-05-14T05:09:34.967Z,1019.37
2023-05-14T05:10:05.854Z,1019.36
2023-05-14T05:10:36.779Z,1019.36
2023-05-14T05:11:07.693Z,1019.36
2023-05-14T05:11:38.605Z,1019.36
2023-05-14T05:12:09.494Z,1019.35
2023-05-14T05:12:40.337Z,1019.36
2023-05-14T05:13:11.257Z,1019.36
2023-05-14T05:13:42.140Z,1019.34
2023-05-14T05:14:13.036Z,1019.35
2023-05-14T05:14:43.965Z,1019.35
2023-05-14T05:15:46.023Z,1019.35
2023-05-14T05:16:16.546Z,1019.34
2023-05-14T05:16:47.414Z,1019.32
2023-05-14T05:17:18.341Z,1019.33
2023-05-14T05:17:49.276Z,1019.33
2023-05-14T05:18:20.167Z,1019.34
2023-05-14T05:18:51.050Z,1019.33
2023-05-14T05:19:29.168Z,1019.32
2023-05-14T05:19:52.680Z,1019.32
2023-05-14T05:20:23.711Z,1019.32
2023-05-14T05:20:54.161Z,1019.31
2023-05-14T05:21:25.062Z,1019.32
2023-05-14T05:21:55.954Z,1019.31
2023-05-14T05:22:26.821Z,1019.31
2023-05-14T05:22:57.695Z,1019.32
2023-05-14T05:23:28.556Z,1019.32
2023-05-14T05:23:59.430Z,1019.32
2023-05-14T05:24:33.301Z,1019.31
2023-05-14T05:25:01.070Z,1019.31
2023-05-14T05:25:31.950Z,1019.32
2023-05-14T05:26:02.898Z,1019.32
2023-05-14T05:26:33.816Z,1019.33
2023-05-14T05:27:04.693Z,1019.34
2023-05-14T05:27:35.583Z,1019.34
2023-05-14T05:28:06.484Z,1019.34
2023-05-14T05:28:37.368Z,1019.36
2023-05-14T05:29:07.345Z,1019.35
2023-05-14T05:29:39.262Z,1019.34
2023-05-14T05:30:10.151Z,1019.34
2023-05-14T05:30:40.009Z,1019.34
2023-05-14T05:31:11.939Z,1019.35
2023-05-14T05:31:42.916Z,1019.34
2023-05-14T05:32:13.809Z,1019.34
2023-05-14T05:33:15.620Z,1019.35
2023-05-14T05:33:46.497Z,1019.35
2023-05-14T05:34:17.360Z,1019.35
2023-05-14T05:34:47.332Z,1019.36
2023-05-14T05:35:19.217Z,1019.36
2023-05-14T05:35:50.177Z,1019.37
2023-05-14T05:36:21.056Z,1019.36
2023-05-14T05:36:51.942Z,1019.37
2023-05-14T05:37:22.845Z,1019.36
2023-05-14T05:37:53.784Z,1019.36
2023-05-14T05:38:24.708Z,1019.34
2023-05-14T05:38:55.911Z,1019.34
2023-05-14T05:39:26.311Z,1019.34
2023-05-14T05:39:57.187Z,1019.33
2023-05-14T05:40:28.116Z,1019.33
2023-05-14T05:40:58.981Z,1019.32
2023-05-14T05:41:29.842Z,1019.31
2023-05-14T05:42:00.733Z,1019.30
2023-05-14T05:42:31.615Z,1019.31
2023-05-14T05:43:02.433Z,1019.32
2023-05-14T05:43:33.278Z,1019.31
2023-05-14T05:44:04.156Z,1019.30
2023-05-14T05:44:35.063Z,1019.30
2023-05-14T05:45:05.943Z,1019.30
2023-05-14T05:45:36.803Z,1019.29
2023-05-14T05:46:07.723Z,1019.29
2023-05-14T05:46:38.630Z,1019.30
2023-05-14T05:47:09.490Z,1019.29
2023-05-14T05:47:39.062Z,1019.29
2023-05-14T05:48:10.901Z,1019.28
2023-05-14T05:48:41.828Z,1019.29
2023-05-14T05:49:12.719Z,1019.26
2023-05-14T05:49:43.580Z,1019.26
2023-05-14T05:50:14.539Z,1019.26
2023-05-14T05:50:45.009Z,1019.28
2023-05-14T05:51:15.879Z,1019.26
2023-05-14T05:51:46.738Z,1019.26
2023-05-14T05:52:17.596Z,1019.26
2023-05-14T05:52:48.487Z,1019.27
2023-05-14T05:53:19.412Z,1019.27
2023-05-14T05:53:50.330Z,1019.26
2023-05-14T05:54:20.326Z,1019.26
2023-05-14T05:54:52.189Z,1019.25
2023-05-14T05:55:23.095Z,1019.25
2023-05-14T05:55:54.029Z,1019.25
2023-05-14T05:56:24.891Z,1019.25
2023-05-14T05:56:54.487Z,1019.25
2023-05-14T05:57:26.409Z,1019.25
2023-05-14T05:57:57.283Z,1019.26
2023-05-14T05:58:28.244Z,1019.27
2023-05-14T05:58:59.088Z,1019.25
2023-05-14T05:59:29.943Z,1019.27
2023-05-14T06:00:00.805Z,1019.27
2023-05-14T06:00:31.659Z,1019.28
2023-05-14T06:01:02.472Z,1019.28
2023-05-14T06:01:33.330Z,1019.29
2023-05-14T06:02:04.234Z,1019.29
2023-05-14T06:02:35.158Z,1019.28
2023-05-14T06:03:36.783Z,1019.28
2023-05-14T06:04:09.356Z,1019.29
2023-05-14T06:04:38.127Z,1019.29
2023-05-14T06:05:09.067Z,1019.29
2023-05-14T06:05:39.992Z,1019.28
2023-05-14T06:06:10.863Z,1019.29
2023-05-14T06:06:41.766Z,1019.29
2023-05-14T06:07:12.699Z,1019.29
2023-05-14T06:07:43.582Z,1019.29
2023-05-14T06:08:14.432Z,1019.30
2023-05-14T06:08:45.317Z,1019.28
2023-05-14T06:09:16.239Z,1019.30
2023-05-14T06:09:46.289Z,1019.28
2023-05-14T06:10:17.760Z,1019.29
2023-05-14T06:10:48.625Z,1019.30
2023-05-14T06:11:19.506Z,1019.29
2023-05-14T06:11:50.368Z,1019.31
2023-05-14T06:12:21.244Z,1019.31
2023-05-14T06:12:52.150Z,1019.31
2023-05-14T06:13:23.013Z,1019.31
2023-05-14T06:13:53.947Z,1019.31
2023-05-14T06:14:23.426Z,1019.31
2023-05-14T06:14:53.943Z,1019.33
2023-05-14T06:15:25.846Z,1019.32
2023-05-14T06:15:56.687Z,1019.32
2023-05-14T06:16:27.605Z,1019.33
2023-05-14T06:16:58.199Z,1019.33
2023-05-14T06:17:31.354Z,1019.31
2023-05-14T06:17:59.275Z,1019.34
2023-05-14T06:19:00.248Z,1019.35
2023-05-14T06:19:31.627Z,1019.34
2023-05-14T06:20:02.515Z,1019.34
2023-05-14T06:20:33.420Z,1019.34
2023-05-14T06:21:04.303Z,1019.35
2023-05-14T06:21:35.255Z,1019.36
2023-05-14T06:22:06.120Z,1019.34
2023-05-14T06:22:36.981Z,1019.34
2023-05-14T06:23:07.879Z,1019.35